Time,TemperatureF,DewpointF,PressureIn,WindDirection,WindDirectionDegrees,WindSpeedMPH,WindSpeedGustMPH,Humidity,HourlyPrecipIn,Conditions,Clouds,dailyrainin,SoftwareType,DateUTC
2013-03-28 00:00:00,53.6,48.2,30.01,SSW,207,0.0,1.0,82,0.00,,---,0.00,VWS V12.07,2013-03-28 07:00:00,
2013-03-28 00:05:00,53.8,48.8,30.01,SSW,207,0.0,0.0,83,0.00,,---,0.00,VWS V12.07,2013-03-28 07:05:00,
2013-03-28 00:10:00,53.9,48.9,30.01,SSW,207,0.0,0.0,83,0.00,,---,0.00,VWS V12.07,2013-03-28 07:10:00,
2013-03-28 00:15:00,54.1,49.1,30.01,SSW,207,0.0,0.0,83,0.00,,---,0.00,VWS V12.07,2013-03-28 07:15:00,
2013-03-28 00:20:00,54.2,49.2,30.01,SSW,207,0.0,0.0,83,0.00,,---,0.00,VWS V12.07,2013-03-28 07:20:00,
2013-03-28 00:30:00,54.5,49.5,30.01,SSW,207,2.0,2.0,83,0.00,,---,0.00,VWS V12.07,2013-03-28 07:30:00,
2013-03-28 00:40:00,54.7,49.7,30.01,SSW,207,0.0,0.0,83,0.00,,---,0.00,VWS V12.07,2013-03-28 07:40:00,
2013-03-28 00:45:00,54.8,49.7,30.01,SSW,207,0.0,0.0,83,0.00,,---,0.00,VWS V12.07,2013-03-28 07:45:00,
2013-03-28 00:55:00,54.8,49.7,30.01,SSW,207,0.0,0.0,83,0.00,,---,0.00,VWS V12.07,2013-03-28 07:55:00,
2013-03-28 01:00:00,54.8,49.7,30.01,SSW,207,0.0,1.0,83,0.00,,---,0.00,VWS V12.07,2013-03-28 08:00:00,
2013-03-28 01:05:00,54.8,49.7,30.01,SSW,207,0.0,0.0,83,0.00,,---,0.00,VWS V12.07,2013-03-28 08:05:00,
2013-03-28 01:15:00,55.0,49.9,30.00,SSW,196,0.0,1.0,83,0.00,,---,0.00,VWS V12.07,2013-03-28 08:15:00,
2013-03-28 01:20:00,55.0,49.9,30.00,SSW,196,0.0,2.0,83,0.00,,---,0.00,VWS V12.07,2013-03-28 08:20:00,
2013-03-28 01:25:00,55.0,49.9,30.00,SSW,196,0.0,0.0,83,0.00,,---,0.00,VWS V12.07,2013-03-28 08:25:00,
2013-03-28 01:30:00,55.0,49.9,30.00,SSW,196,2.0,3.0,83,0.00,,---,0.00,VWS V12.07,2013-03-28 08:30:00,
2013-03-28 01:40:00,55.0,49.9,30.00,SE,140,0.0,4.0,83,0.00,,---,0.00,VWS V12.07,2013-03-28 08:40:00,
2013-03-28 01:45:00,55.0,49.9,30.00,SE,140,1.0,2.0,83,0.00,,---,0.00,VWS V12.07,2013-03-28 08:45:00,
2013-03-28 01:50:00,55.0,49.9,30.00,SE,140,0.0,0.0,83,0.00,,---,0.00,VWS V12.07,2013-03-28 08:50:00,
2013-03-28 01:55:00,55.0,49.9,30.00,SE,140,1.0,1.0,83,0.00,,---,0.00,VWS V12.07,2013-03-28 08:55:00,
2013-03-28 02:00:00,54.8,49.7,30.00,SE,139,4.0,5.0,83,0.00,,---,0.00,VWS V12.07,2013-03-28 09:00:00,
2013-03-28 02:05:00,54.8,49.7,30.00,SE,128,1.0,6.0,83,0.00,,---,0.00,VWS V12.07,2013-03-28 09:05:00,
2013-03-28 02:10:00,54.7,49.7,30.00,SE,125,0.0,4.0,83,0.00,,---,0.00,VWS V12.07,2013-03-28 09:10:00,
2013-03-28 02:20:00,54.7,49.7,30.00,SE,125,4.0,5.0,83,0.00,,---,0.00,VWS V12.07,2013-03-28 09:20:00,
2013-03-28 02:25:00,54.5,49.5,29.99,ESE,118,2.0,4.0,83,0.00,,---,0.00,VWS V12.07,2013-03-28 09:25:00,
2013-03-28 02:30:00,54.5,49.5,29.99,ESE,118,1.0,5.0,83,0.00,,---,0.00,VWS V12.07,2013-03-28 09:30:00,
2013-03-28 02:35:00,54.5,49.5,29.99,ESE,113,2.0,2.0,83,0.00,,---,0.00,VWS V12.07,2013-03-28 09:35:00,
2013-03-28 02:40:00,54.5,49.5,29.99,ESE,114,1.0,4.0,83,0.00,,---,0.00,VWS V12.07,2013-03-28 09:40:00,
2013-03-28 02:45:00,54.5,49.5,29.99,ESE,102,4.0,5.0,83,0.00,,---,0.00,VWS V12.07,2013-03-28 09:45:00,
2013-03-28 02:50:00,54.5,49.5,29.99,ESE,119,5.0,7.0,83,0.00,,---,0.00,VWS V12.07,2013-03-28 09:50:00,
2013-03-28 02:55:00,54.4,49.3,29.98,SE,128,4.0,6.0,83,0.00,,---,0.00,VWS V12.07,2013-03-28 09:55:00,
2013-03-28 03:00:00,54.4,49.3,29.98,SE,125,4.0,4.0,83,0.00,,---,0.00,VWS V12.07,2013-03-28 10:00:00,
2013-03-28 03:05:00,54.4,49.3,29.98,ESE,118,1.0,5.0,83,0.00,,---,0.00,VWS V12.07,2013-03-28 10:05:00,
2013-03-28 03:10:00,54.4,49.3,29.98,ESE,121,4.0,5.0,83,0.00,,---,0.00,VWS V12.07,2013-03-28 10:10:00,
2013-03-28 03:15:00,54.4,49.3,29.98,ESE,119,7.0,7.0,83,0.00,,---,0.00,VWS V12.07,2013-03-28 10:15:00,
2013-03-28 03:20:00,54.2,49.2,29.98,ESE,117,1.0,4.0,83,0.00,,---,0.00,VWS V12.07,2013-03-28 10:20:00,
2013-03-28 03:25:00,54.2,49.2,29.98,ESE,117,2.0,4.0,83,0.00,,---,0.00,VWS V12.07,2013-03-28 10:25:00,
2013-03-28 03:35:00,54.2,49.2,29.98,ESE,117,0.0,0.0,83,0.00,,---,0.00,VWS V12.07,2013-03-28 10:35:00,
2013-03-28 03:40:00,54.2,49.2,29.98,ESE,117,0.0,0.0,83,0.00,,---,0.00,VWS V12.07,2013-03-28 10:40:00,
2013-03-28 03:45:00,54.2,49.2,29.98,ESE,117,1.0,2.0,83,0.00,,---,0.00,VWS V12.07,2013-03-28 10:45:00,
2013-03-28 03:50:00,54.2,49.2,29.98,ESE,117,3.0,4.0,83,0.00,,---,0.00,VWS V12.07,2013-03-28 10:50:00,
2013-03-28 03:55:00,54.2,49.2,29.98,SE,128,4.0,6.0,83,0.00,,---,0.00,VWS V12.07,2013-03-28 10:55:00,
2013-03-28 04:00:00,54.2,49.2,29.98,ESE,120,4.0,5.0,83,0.00,,---,0.00,VWS V12.07,2013-03-28 11:00:00,
2013-03-28 04:05:00,54.1,49.1,29.98,ESE,120,0.0,2.0,83,0.00,,---,0.00,VWS V12.07,2013-03-28 11:05:00,
2013-03-28 04:10:00,54.1,49.1,29.98,ESE,121,4.0,6.0,83,0.00,,---,0.00,VWS V12.07,2013-03-28 11:10:00,
2013-03-28 04:15:00,54.1,49.1,29.98,ESE,119,4.0,5.0,83,0.00,,---,0.00,VWS V12.07,2013-03-28 11:15:00,
2013-03-28 04:25:00,53.9,48.9,29.98,SE,128,5.0,6.0,83,0.00,,---,0.00,VWS V12.07,2013-03-28 11:25:00,
2013-03-28 04:30:00,53.8,48.8,29.98,ESE,119,0.0,2.0,83,0.00,,---,0.00,VWS V12.07,2013-03-28 11:30:00,
2013-03-28 04:35:00,53.8,48.8,29.98,ESE,117,4.0,5.0,83,0.00,,---,0.00,VWS V12.07,2013-03-28 11:35:00,
2013-03-28 04:40:00,53.8,48.8,29.98,ESE,116,6.0,7.0,83,0.00,,---,0.00,VWS V12.07,2013-03-28 11:40:00,
2013-03-28 04:45:00,53.6,48.6,29.98,East,98,5.0,5.0,83,0.00,,---,0.00,VWS V12.07,2013-03-28 11:45:00,
2013-03-28 04:55:00,53.6,48.9,29.98,ESE,113,1.0,6.0,84,0.00,,---,0.00,VWS V12.07,2013-03-28 11:55:00,
2013-03-28 05:05:00,53.5,48.8,29.98,ESE,117,3.0,5.0,84,0.00,,---,0.00,VWS V12.07,2013-03-28 12:05:00,
2013-03-28 05:10:00,53.5,48.8,29.98,SE,125,4.0,7.0,84,0.00,,---,0.00,VWS V12.07,2013-03-28 12:10:00,
2013-03-28 05:15:00,53.5,48.8,29.98,SE,130,2.0,5.0,84,0.00,,---,0.00,VWS V12.07,2013-03-28 12:15:00,
2013-03-28 05:20:00,53.5,48.8,29.98,SE,128,1.0,5.0,84,0.00,,---,0.00,VWS V12.07,2013-03-28 12:20:00,
2013-03-28 05:25:00,53.5,48.8,29.98,SE,125,2.0,4.0,84,0.00,,---,0.00,VWS V12.07,2013-03-28 12:25:00,
2013-03-28 05:30:00,53.5,48.8,29.98,ESE,116,0.0,3.0,84,0.00,,---,0.00,VWS V12.07,2013-03-28 12:30:00,
2013-03-28 05:35:00,53.5,48.8,29.98,ESE,115,4.0,6.0,84,0.00,,---,0.00,VWS V12.07,2013-03-28 12:35:00,
2013-03-28 05:40:00,53.5,48.8,29.98,ESE,115,4.0,5.0,84,0.00,,---,0.00,VWS V12.07,2013-03-28 12:40:00,
2013-03-28 05:45:00,53.5,48.8,29.98,ESE,115,2.0,4.0,84,0.00,,---,0.00,VWS V12.07,2013-03-28 12:45:00,
2013-03-28 05:50:00,53.5,48.8,29.98,ESE,122,0.0,3.0,84,0.00,,---,0.00,VWS V12.07,2013-03-28 12:50:00,
2013-03-28 06:00:00,53.5,48.8,29.98,ESE,122,0.0,0.0,84,0.00,,---,0.00,VWS V12.07,2013-03-28 13:00:00,
2013-03-28 06:05:00,53.5,48.8,29.98,ESE,122,2.0,5.0,84,0.00,,---,0.00,VWS V12.07,2013-03-28 13:05:00,
2013-03-28 06:10:00,53.5,48.8,29.98,ESE,122,4.0,4.0,84,0.00,,---,0.00,VWS V12.07,2013-03-28 13:10:00,
2013-03-28 06:15:00,53.5,48.8,29.98,ESE,123,0.0,2.0,84,0.00,,---,0.00,VWS V12.07,2013-03-28 13:15:00,
2013-03-28 06:20:00,53.5,48.8,29.98,ESE,116,5.0,5.0,84,0.00,,---,0.00,VWS V12.07,2013-03-28 13:20:00,
2013-03-28 06:30:00,53.3,48.6,29.98,ESE,109,2.0,6.0,84,0.00,,---,0.00,VWS V12.07,2013-03-28 13:30:00,
2013-03-28 06:35:00,53.3,48.6,29.98,ESE,109,1.0,4.0,84,0.00,,---,0.00,VWS V12.07,2013-03-28 13:35:00,
2013-03-28 06:40:00,53.3,48.6,29.98,ESE,109,0.0,1.0,84,0.00,,---,0.00,VWS V12.07,2013-03-28 13:40:00,
2013-03-28 06:45:00,53.3,48.6,29.98,ESE,111,1.0,4.0,84,0.00,,---,0.00,VWS V12.07,2013-03-28 13:45:00,
2013-03-28 06:55:00,52.9,48.2,29.98,ESE,119,2.0,6.0,84,0.00,,---,0.00,VWS V12.07,2013-03-28 13:55:00,
2013-03-28 07:00:00,52.9,48.2,29.98,East,101,0.0,4.0,84,0.00,,---,0.00,VWS V12.07,2013-03-28 14:00:00,
2013-03-28 07:05:00,52.9,48.2,29.98,ESE,115,4.0,5.0,84,0.00,,---,0.00,VWS V12.07,2013-03-28 14:05:00,
2013-03-28 07:10:00,52.8,48.1,29.98,ESE,115,2.0,4.0,84,0.00,,---,0.00,VWS V12.07,2013-03-28 14:10:00,
2013-03-28 07:15:00,52.8,48.1,29.98,ESE,119,4.0,5.0,84,0.00,,---,0.00,VWS V12.07,2013-03-28 14:15:00,
2013-03-28 07:20:00,52.6,47.9,29.98,ESE,113,0.0,2.0,84,0.00,,---,0.00,VWS V12.07,2013-03-28 14:20:00,
2013-03-28 07:25:00,52.6,47.9,29.99,ESE,113,0.0,0.0,84,0.00,,---,0.00,VWS V12.07,2013-03-28 14:25:00,
2013-03-28 07:35:00,52.8,48.1,29.99,ESE,115,0.0,2.0,84,0.00,,---,0.00,VWS V12.07,2013-03-28 14:35:00,
2013-03-28 07:40:00,52.8,48.1,30.00,ESE,115,0.0,2.0,84,0.00,,---,0.00,VWS V12.07,2013-03-28 14:40:00,
2013-03-28 07:50:00,53.2,48.8,30.00,ESE,115,0.0,1.0,85,0.00,,---,0.00,VWS V12.07,2013-03-28 14:50:00,
2013-03-28 08:00:00,54.1,49.4,30.00,ESE,115,0.0,1.0,84,0.00,,---,0.00,VWS V12.07,2013-03-28 15:00:00,
2013-03-28 08:05:00,54.1,49.4,30.00,ESE,115,0.0,0.0,84,0.00,,---,0.00,VWS V12.07,2013-03-28 15:05:00,
2013-03-28 08:10:00,54.4,49.3,30.01,ESE,115,0.0,1.0,83,0.00,,---,0.00,VWS V12.07,2013-03-28 15:10:00,
2013-03-28 08:20:00,55.3,50.2,30.01,ESE,115,0.0,1.0,83,0.00,,---,0.00,VWS V12.07,2013-03-28 15:20:00,
2013-03-28 08:25:00,55.3,49.6,30.01,ESE,119,1.0,1.0,81,0.00,,---,0.00,VWS V12.07,2013-03-28 15:25:00,
2013-03-28 08:30:00,55.6,49.9,30.01,ESE,119,0.0,0.0,81,0.00,,---,0.00,VWS V12.07,2013-03-28 15:30:00,
2013-03-28 08:35:00,55.7,50.0,30.01,ESE,119,0.0,0.0,81,0.00,,---,0.00,VWS V12.07,2013-03-28 15:35:00,
2013-03-28 08:40:00,55.9,49.8,30.01,ESE,119,0.0,1.0,80,0.00,,---,0.00,VWS V12.07,2013-03-28 15:40:00,
2013-03-28 08:45:00,56.3,50.2,30.01,SE,133,0.0,1.0,80,0.00,,---,0.00,VWS V12.07,2013-03-28 15:45:00,
2013-03-28 08:50:00,56.2,49.8,30.01,SE,130,1.0,5.0,79,0.00,,---,0.00,VWS V12.07,2013-03-28 15:50:00,
2013-03-28 08:55:00,56.3,49.9,30.02,SE,130,0.0,2.0,79,0.00,,---,0.00,VWS V12.07,2013-03-28 15:55:00,
2013-03-28 09:05:00,57.3,50.5,30.02,SE,142,0.0,1.0,78,0.00,,---,0.00,VWS V12.07,2013-03-28 16:05:00,
2013-03-28 09:10:00,57.0,49.9,30.02,South,182,1.0,4.0,77,0.00,,---,0.00,VWS V12.07,2013-03-28 16:10:00,
2013-03-28 09:15:00,56.9,49.8,30.02,SE,128,0.0,4.0,77,0.00,,---,0.00,VWS V12.07,2013-03-28 16:15:00,
2013-03-28 09:25:00,57.8,50.3,30.02,SSE,155,0.0,2.0,76,0.00,,---,0.00,VWS V12.07,2013-03-28 16:25:00,
2013-03-28 09:30:00,58.1,50.9,30.02,SE,140,2.0,2.0,77,0.00,,---,0.00,VWS V12.07,2013-03-28 16:30:00,
2013-03-28 09:35:00,59.0,51.1,30.02,SSE,163,1.0,2.0,75,0.00,,---,0.00,VWS V12.07,2013-03-28 16:35:00,
2013-03-28 09:40:00,59.6,51.3,30.02,SSE,163,0.0,2.0,74,0.00,,---,0.00,VWS V12.07,2013-03-28 16:40:00,
2013-03-28 09:45:00,60.4,51.7,30.02,SW,223,4.0,4.0,73,0.00,,---,0.00,VWS V12.07,2013-03-28 16:45:00,
2013-03-28 09:50:00,60.7,51.6,30.02,SSW,212,0.0,2.0,72,0.00,,---,0.00,VWS V12.07,2013-03-28 16:50:00,
2013-03-28 10:00:00,61.5,51.6,30.02,SSW,205,1.0,2.0,70,0.00,,---,0.00,VWS V12.07,2013-03-28 17:00:00,
2013-03-28 10:05:00,61.5,51.2,30.02,SSW,203,0.0,3.0,69,0.00,,---,0.00,VWS V12.07,2013-03-28 17:05:00,
2013-03-28 10:10:00,61.6,51.3,30.03,SSW,213,1.0,2.0,69,0.00,,---,0.00,VWS V12.07,2013-03-28 17:10:00,
2013-03-28 10:20:00,62.6,51.5,30.03,WNW,284,3.0,3.0,67,0.00,,---,0.00,VWS V12.07,2013-03-28 17:20:00,
2013-03-28 10:25:00,62.9,51.4,30.02,WSW,248,4.0,4.0,66,0.00,,---,0.00,VWS V12.07,2013-03-28 17:25:00,
2013-03-28 10:35:00,64.2,52.6,30.02,SW,215,1.0,5.0,66,0.00,,---,0.00,VWS V12.07,2013-03-28 17:35:00,
2013-03-28 10:45:00,65.3,52.4,30.02,SW,217,0.0,5.0,63,0.00,,---,0.00,VWS V12.07,2013-03-28 17:45:00,
2013-03-28 10:50:00,66.0,52.6,30.02,West,259,2.0,7.0,62,0.00,,---,0.00,VWS V12.07,2013-03-28 17:50:00,
2013-03-28 10:55:00,66.9,53.0,30.03,WSW,244,0.0,4.0,61,0.00,,---,0.00,VWS V12.07,2013-03-28 17:55:00,
2013-03-28 11:00:00,67.1,52.3,30.03,SSW,199,0.0,1.0,59,0.00,,---,0.00,VWS V12.07,2013-03-28 18:00:00,
2013-03-28 11:05:00,66.1,50.9,30.03,SE,126,2.0,6.0,58,0.00,,---,0.00,VWS V12.07,2013-03-28 18:05:00,
2013-03-28 11:10:00,67.1,52.3,30.02,NNW,347,4.0,4.0,59,0.00,,---,0.00,VWS V12.07,2013-03-28 18:10:00,
2013-03-28 11:15:00,67.4,52.6,30.02,WSW,238,0.0,2.0,59,0.00,,---,0.00,VWS V12.07,2013-03-28 18:15:00,
2013-03-28 11:25:00,66.9,51.7,30.02,SW,222,0.0,2.0,58,0.00,,---,0.00,VWS V12.07,2013-03-28 18:25:00,
2013-03-28 11:30:00,67.4,52.1,30.02,SW,223,1.0,4.0,58,0.00,,---,0.00,VWS V12.07,2013-03-28 18:30:00,
2013-03-28 11:40:00,69.6,54.2,30.01,WSW,252,2.0,4.0,58,0.00,,---,0.00,VWS V12.07,2013-03-28 18:40:00,
2013-03-28 11:45:00,68.4,53.1,30.01,WSW,241,1.0,6.0,58,0.00,,---,0.00,VWS V12.07,2013-03-28 18:45:00,
2013-03-28 11:50:00,69.1,52.8,30.01,SSW,211,1.0,2.0,56,0.00,,---,0.00,VWS V12.07,2013-03-28 18:50:00,
2013-03-28 11:55:00,70.6,53.2,30.01,South,184,1.0,5.0,54,0.00,,---,0.00,VWS V12.07,2013-03-28 18:55:00,
2013-03-28 12:00:00,71.6,53.1,30.01,SW,232,2.0,5.0,52,0.00,,---,0.00,VWS V12.07,2013-03-28 19:00:00,
2013-03-28 12:05:00,70.1,51.7,30.01,West,265,5.0,6.0,52,0.00,,---,0.00,VWS V12.07,2013-03-28 19:05:00,
2013-03-28 12:10:00,69.8,52.4,30.01,WSW,251,4.0,6.0,54,0.00,,---,0.00,VWS V12.07,2013-03-28 19:10:00,
2013-03-28 12:20:00,69.9,53.5,30.01,NW,322,5.0,5.0,56,0.00,,---,0.00,VWS V12.07,2013-03-28 19:20:00,
2013-03-28 12:30:00,70.3,53.9,29.99,NW,310,2.0,6.0,56,0.00,,---,0.00,VWS V12.07,2013-03-28 19:30:00,
2013-03-28 12:35:00,69.3,53.0,29.99,WSW,245,0.0,6.0,56,0.00,,---,0.00,VWS V12.07,2013-03-28 19:35:00,
2013-03-28 12:40:00,68.8,53.0,29.99,NW,304,2.0,9.0,57,0.00,,---,0.00,VWS V12.07,2013-03-28 19:40:00,
2013-03-28 12:50:00,69.4,52.5,29.99,SW,221,0.0,7.0,55,0.00,,---,0.00,VWS V12.07,2013-03-28 19:50:00,
2013-03-28 12:55:00,70.6,52.7,29.99,West,263,7.0,11.0,53,0.00,,---,0.00,VWS V12.07,2013-03-28 19:55:00,
2013-03-28 13:00:00,69.8,52.4,29.99,West,266,2.0,6.0,54,0.00,,---,0.00,VWS V12.07,2013-03-28 20:00:00,
2013-03-28 13:05:00,69.4,53.5,29.99,West,271,4.0,5.0,57,0.00,,---,0.00,VWS V12.07,2013-03-28 20:05:00,
2013-03-28 13:10:00,68.9,52.6,29.99,NW,314,2.0,11.0,56,0.00,,---,0.00,VWS V12.07,2013-03-28 20:10:00,
2013-03-28 13:15:00,69.1,52.3,29.99,West,281,5.0,9.0,55,0.00,,---,0.00,VWS V12.07,2013-03-28 20:15:00,
2013-03-28 13:25:00,68.8,51.5,29.99,NW,321,2.0,11.0,54,0.00,,---,0.00,VWS V12.07,2013-03-28 20:25:00,
2013-03-28 13:30:00,67.8,52.5,29.99,WSW,240,2.0,6.0,58,0.00,,---,0.00,VWS V12.07,2013-03-28 20:30:00,
2013-03-28 13:40:00,67.9,51.6,29.99,WNW,303,4.0,7.0,56,0.00,,---,0.00,VWS V12.07,2013-03-28 20:40:00,
2013-03-28 13:45:00,69.4,52.5,29.99,West,267,1.0,4.0,55,0.00,,---,0.00,VWS V12.07,2013-03-28 20:45:00,
2013-03-28 13:55:00,69.8,52.9,29.98,WSW,256,3.0,6.0,55,0.00,,---,0.00,VWS V12.07,2013-03-28 20:55:00,
2013-03-28 14:00:00,70.3,52.4,29.98,NNE,21,1.0,5.0,53,0.00,,---,0.00,VWS V12.07,2013-03-28 21:00:00,
2013-03-28 14:05:00,70.3,51.9,29.98,WSW,241,6.0,7.0,52,0.00,,---,0.00,VWS V12.07,2013-03-28 21:05:00,
2013-03-28 14:10:00,70.1,51.7,29.98,West,259,5.0,6.0,52,0.00,,---,0.00,VWS V12.07,2013-03-28 21:10:00,
2013-03-28 14:15:00,69.9,51.5,29.98,North,355,4.0,7.0,52,0.00,,---,0.00,VWS V12.07,2013-03-28 21:15:00,
2013-03-28 14:20:00,69.6,50.7,29.98,West,269,7.0,9.0,51,0.00,,---,0.00,VWS V12.07,2013-03-28 21:20:00,
2013-03-28 14:25:00,68.9,51.1,29.98,West,271,2.0,7.0,53,0.00,,---,0.00,VWS V12.07,2013-03-28 21:25:00,
2013-03-28 14:35:00,68.9,52.1,29.98,SW,218,4.0,9.0,55,0.00,,---,0.00,VWS V12.07,2013-03-28 21:35:00,
2013-03-28 14:40:00,69.8,52.4,29.98,WSW,239,5.0,8.0,54,0.00,,---,0.00,VWS V12.07,2013-03-28 21:40:00,
2013-03-28 14:50:00,69.4,52.0,29.98,WSW,246,4.0,6.0,54,0.00,,---,0.00,VWS V12.07,2013-03-28 21:50:00,
2013-03-28 14:55:00,69.1,51.8,29.98,WNW,289,7.0,8.0,54,0.00,,---,0.00,VWS V12.07,2013-03-28 21:55:00,
2013-03-28 15:00:00,68.3,52.5,29.98,NNW,328,10.0,10.0,57,0.00,,---,0.00,VWS V12.07,2013-03-28 22:00:00,
2013-03-28 15:10:00,67.1,52.3,29.98,NNW,334,3.0,11.0,59,0.00,,---,0.00,VWS V12.07,2013-03-28 22:10:00,
2013-03-28 15:15:00,67.4,53.0,29.98,WSW,257,7.0,7.0,60,0.00,,---,0.00,VWS V12.07,2013-03-28 22:15:00,
2013-03-28 15:20:00,67.9,52.6,29.98,NNW,333,5.0,10.0,58,0.00,,---,0.00,VWS V12.07,2013-03-28 22:20:00,
2013-03-28 15:25:00,68.1,52.3,29.98,NNW,330,4.0,9.0,57,0.00,,---,0.00,VWS V12.07,2013-03-28 22:25:00,
2013-03-28 15:30:00,67.9,52.6,29.98,NW,304,5.0,7.0,58,0.00,,---,0.00,VWS V12.07,2013-03-28 22:30:00,
2013-03-28 15:35:00,67.9,53.1,29.98,West,273,4.0,9.0,59,0.00,,---,0.00,VWS V12.07,2013-03-28 22:35:00,
2013-03-28 15:45:00,67.6,53.2,29.97,West,275,4.0,6.0,60,0.00,,---,0.00,VWS V12.07,2013-03-28 22:45:00,
2013-03-28 15:50:00,67.8,53.0,29.97,NW,322,4.0,6.0,59,0.00,,---,0.00,VWS V12.07,2013-03-28 22:50:00,
2013-03-28 16:00:00,67.8,53.9,29.98,WNW,286,3.0,5.0,61,0.00,,---,0.00,VWS V12.07,2013-03-28 23:00:00,
2013-03-28 16:05:00,68.8,53.9,29.98,WNW,292,5.0,5.0,59,0.00,,---,0.00,VWS V12.07,2013-03-28 23:05:00,
2013-03-28 16:10:00,68.4,53.5,29.97,WSW,249,7.0,7.0,59,0.00,,---,0.00,VWS V12.07,2013-03-28 23:10:00,
2013-03-28 16:15:00,67.6,52.8,29.97,WSW,249,0.0,5.0,59,0.00,,---,0.00,VWS V12.07,2013-03-28 23:15:00,
2013-03-28 16:20:00,68.8,53.4,29.97,NW,325,0.0,4.0,58,0.00,,---,0.00,VWS V12.07,2013-03-28 23:20:00,
2013-03-28 16:25:00,68.1,53.2,29.97,WSW,244,5.0,5.0,59,0.00,,---,0.00,VWS V12.07,2013-03-28 23:25:00,
2013-03-28 16:35:00,68.1,53.7,29.97,West,273,1.0,6.0,60,0.00,,---,0.00,VWS V12.07,2013-03-28 23:35:00,
2013-03-28 16:40:00,68.4,54.0,29.97,WNW,293,2.0,5.0,60,0.00,,---,0.00,VWS V12.07,2013-03-28 23:40:00,
2013-03-28 16:45:00,68.3,53.9,29.97,SW,228,4.0,7.0,60,0.00,,---,0.00,VWS V12.07,2013-03-28 23:45:00,
2013-03-28 16:50:00,69.3,54.8,29.97,SSE,167,0.0,4.0,60,0.00,,---,0.00,VWS V12.07,2013-03-28 23:50:00,
2013-03-28 16:55:00,69.6,54.7,29.97,WSW,238,1.0,4.0,59,0.00,,---,0.00,VWS V12.07,2013-03-28 23:55:00,
2013-03-28 17:00:00,69.3,53.9,29.97,West,263,0.0,6.0,58,0.00,,---,0.00,VWS V12.07,2013-03-29 00:00:00,
2013-03-28 17:05:00,69.1,54.2,29.97,South,186,1.0,4.0,59,0.00,,---,0.00,VWS V12.07,2013-03-29 00:05:00,
2013-03-28 17:10:00,68.6,54.2,29.97,South,178,1.0,2.0,60,0.00,,---,0.00,VWS V12.07,2013-03-29 00:10:00,
2013-03-28 17:15:00,68.9,54.5,29.97,WSW,257,0.0,4.0,60,0.00,,---,0.00,VWS V12.07,2013-03-29 00:15:00,
2013-03-28 17:20:00,69.4,54.0,29.97,WSW,242,0.0,2.0,58,0.00,,---,0.00,VWS V12.07,2013-03-29 00:20:00,
2013-03-28 17:25:00,69.6,54.2,29.97,WSW,242,0.0,1.0,58,0.00,,---,0.00,VWS V12.07,2013-03-29 00:25:00,
2013-03-28 17:35:00,70.1,52.7,29.97,WNW,302,0.0,1.0,54,0.00,,---,0.00,VWS V12.07,2013-03-29 00:35:00,
2013-03-28 17:40:00,70.4,53.0,29.96,WNW,302,0.0,1.0,54,0.00,,---,0.00,VWS V12.07,2013-03-29 00:40:00,
2013-03-28 17:45:00,70.4,52.0,29.96,NNW,348,7.0,7.0,52,0.00,,---,0.00,VWS V12.07,2013-03-29 00:45:00,
2013-03-28 17:50:00,70.4,51.4,29.96,North,350,0.0,1.0,51,0.00,,---,0.00,VWS V12.07,2013-03-29 00:50:00,
2013-03-28 17:55:00,69.9,52.0,29.96,NE,46,0.0,5.0,53,0.00,,---,0.00,VWS V12.07,2013-03-29 00:55:00,
2013-03-28 18:05:00,68.8,52.5,29.96,NE,52,0.0,1.0,56,0.00,,---,0.00,VWS V12.07,2013-03-29 01:05:00,
2013-03-28 18:10:00,68.6,52.8,29.96,NE,51,0.0,1.0,57,0.00,,---,0.00,VWS V12.07,2013-03-29 01:10:00,
2013-03-28 18:15:00,68.3,52.5,29.96,ENE,65,0.0,0.0,57,0.00,,---,0.00,VWS V12.07,2013-03-29 01:15:00,
2013-03-28 18:20:00,68.4,52.6,29.96,ENE,59,1.0,2.0,57,0.00,,---,0.00,VWS V12.07,2013-03-29 01:20:00,
2013-03-28 18:25:00,68.9,53.1,29.96,ENE,59,0.0,0.0,57,0.00,,---,0.00,VWS V12.07,2013-03-29 01:25:00,
2013-03-28 18:35:00,68.8,53.0,29.96,ESE,114,0.0,1.0,57,0.00,,---,0.00,VWS V12.07,2013-03-29 01:35:00,
2013-03-28 18:45:00,68.3,52.5,29.96,ESE,114,0.0,1.0,57,0.00,,---,0.00,VWS V12.07,2013-03-29 01:45:00,
2013-03-28 18:50:00,67.8,52.0,29.96,East,82,1.0,1.0,57,0.00,,---,0.00,VWS V12.07,2013-03-29 01:50:00,
2013-03-28 18:55:00,67.4,52.1,29.96,East,82,0.0,1.0,58,0.00,,---,0.00,VWS V12.07,2013-03-29 01:55:00,
2013-03-28 19:00:00,67.3,52.0,29.96,ENE,62,0.0,2.0,58,0.00,,---,0.00,VWS V12.07,2013-03-29 02:00:00,
2013-03-28 19:05:00,67.1,51.8,29.96,ENE,62,0.0,1.0,58,0.00,,---,0.00,VWS V12.07,2013-03-29 02:05:00,
2013-03-28 19:10:00,66.8,52.0,29.96,ENE,62,0.0,1.0,59,0.00,,---,0.00,VWS V12.07,2013-03-29 02:10:00,
2013-03-28 19:15:00,66.4,51.7,29.96,ENE,62,1.0,2.0,59,0.00,,---,0.00,VWS V12.07,2013-03-29 02:15:00,
2013-03-28 19:25:00,66.1,51.4,29.96,ENE,62,0.0,0.0,59,0.00,,---,0.00,VWS V12.07,2013-03-29 02:25:00,
2013-03-28 19:30:00,66.1,52.3,29.96,ENE,62,0.0,1.0,61,0.00,,---,0.00,VWS V12.07,2013-03-29 02:30:00,
2013-03-28 19:35:00,65.6,52.2,29.96,ENE,62,0.0,0.0,62,0.00,,---,0.00,VWS V12.07,2013-03-29 02:35:00,
2013-03-28 19:45:00,64.7,53.1,29.96,ENE,62,0.0,1.0,66,0.00,,---,0.00,VWS V12.07,2013-03-29 02:45:00,
2013-03-28 19:55:00,63.4,53.1,29.96,ENE,62,0.0,1.0,69,0.00,,---,0.00,VWS V12.07,2013-03-29 02:55:00,
2013-03-28 20:00:00,63.1,53.2,29.96,ENE,62,0.0,0.0,70,0.00,,---,0.00,VWS V12.07,2013-03-29 03:00:00,
2013-03-28 20:05:00,62.9,53.0,29.96,ENE,62,0.0,0.0,70,0.00,,---,0.00,VWS V12.07,2013-03-29 03:05:00,
2013-03-28 20:10:00,62.6,53.1,29.97,ENE,62,0.0,0.0,71,0.00,,---,0.00,VWS V12.07,2013-03-29 03:10:00,
2013-03-28 20:15:00,62.3,52.8,29.97,ENE,62,0.0,0.0,71,0.00,,---,0.00,VWS V12.07,2013-03-29 03:15:00,
2013-03-28 20:20:00,61.8,52.3,29.97,ENE,62,0.0,0.0,71,0.00,,---,0.00,VWS V12.07,2013-03-29 03:20:00,
2013-03-28 20:25:00,61.8,52.3,29.97,ENE,62,0.0,0.0,71,0.00,,---,0.00,VWS V12.07,2013-03-29 03:25:00,
2013-03-28 20:30:00,61.8,52.3,29.97,ENE,62,0.0,2.0,71,0.00,,---,0.00,VWS V12.07,2013-03-29 03:30:00,
2013-03-28 20:35:00,61.8,52.3,29.97,NNW,340,1.0,4.0,71,0.00,,---,0.00,VWS V12.07,2013-03-29 03:35:00,
2013-03-28 20:40:00,61.8,52.7,29.98,WNW,302,1.0,2.0,72,0.00,,---,0.00,VWS V12.07,2013-03-29 03:40:00,
2013-03-28 20:45:00,61.6,52.5,29.98,NNW,337,0.0,2.0,72,0.00,,---,0.00,VWS V12.07,2013-03-29 03:45:00,
2013-03-28 20:50:00,61.5,52.8,29.98,NNW,337,0.0,0.0,73,0.00,,---,0.00,VWS V12.07,2013-03-29 03:50:00,
2013-03-28 21:00:00,61.2,52.5,29.99,NNW,337,0.0,1.0,73,0.00,,---,0.00,VWS V12.07,2013-03-29 04:00:00,
2013-03-28 21:05:00,61.0,52.3,29.99,WNW,284,2.0,2.0,73,0.00,,---,0.00,VWS V12.07,2013-03-29 04:05:00,
2013-03-28 21:10:00,60.7,52.4,30.00,NW,309,0.0,0.0,74,0.00,,---,0.00,VWS V12.07,2013-03-29 04:10:00,
2013-03-28 21:15:00,60.5,52.2,30.00,NW,309,0.0,0.0,74,0.00,,---,0.00,VWS V12.07,2013-03-29 04:15:00,
2013-03-28 21:20:00,60.4,52.1,30.00,NW,309,0.0,0.0,74,0.00,,---,0.00,VWS V12.07,2013-03-29 04:20:00,
2013-03-28 21:30:00,60.1,52.2,30.00,NW,309,0.0,0.0,75,0.00,,---,0.00,VWS V12.07,2013-03-29 04:30:00,
2013-03-28 21:35:00,59.9,52.0,30.00,NW,309,0.0,2.0,75,0.00,,---,0.00,VWS V12.07,2013-03-29 04:35:00,
2013-03-28 21:40:00,59.8,52.2,30.01,NW,309,0.0,1.0,76,0.00,,---,0.00,VWS V12.07,2013-03-29 04:40:00,
2013-03-28 21:50:00,59.5,51.9,30.01,NW,309,0.0,0.0,76,0.00,,---,0.00,VWS V12.07,2013-03-29 04:50:00,
2013-03-28 21:55:00,59.3,52.1,30.01,NW,309,0.0,1.0,77,0.00,,---,0.00,VWS V12.07,2013-03-29 04:55:00,
2013-03-28 22:00:00,59.2,52.0,30.01,NW,309,0.0,1.0,77,0.00,,---,0.00,VWS V12.07,2013-03-29 05:00:00,
2013-03-28 22:05:00,59.0,51.8,30.01,NW,309,0.0,0.0,77,0.00,,---,0.00,VWS V12.07,2013-03-29 05:05:00,
2013-03-28 22:10:00,58.9,51.7,30.02,NW,309,1.0,2.0,77,0.00,,---,0.00,VWS V12.07,2013-03-29 05:10:00,
2013-03-28 22:20:00,58.7,51.9,30.02,South,180,0.0,4.0,78,0.00,,---,0.00,VWS V12.07,2013-03-29 05:20:00,
2013-03-28 22:25:00,58.7,52.2,30.03,South,180,0.0,0.0,79,0.00,,---,0.00,VWS V12.07,2013-03-29 05:25:00,
2013-03-28 22:30:00,58.6,52.1,30.03,South,180,0.0,1.0,79,0.00,,---,0.00,VWS V12.07,2013-03-29 05:30:00,
2013-03-28 22:40:00,58.4,51.9,30.04,South,180,0.0,0.0,79,0.00,,---,0.00,VWS V12.07,2013-03-29 05:40:00,
2013-03-28 22:45:00,58.3,51.8,30.04,South,180,0.0,1.0,79,0.00,,---,0.00,VWS V12.07,2013-03-29 05:45:00,
2013-03-28 22:50:00,58.1,51.6,30.04,South,180,0.0,0.0,79,0.00,,---,0.00,VWS V12.07,2013-03-29 05:50:00,
2013-03-28 22:55:00,58.0,51.9,30.04,South,180,0.0,0.0,80,0.00,,---,0.00,VWS V12.07,2013-03-29 05:55:00,
2013-03-28 23:05:00,57.8,51.7,30.04,South,180,0.0,1.0,80,0.00,,---,0.00,VWS V12.07,2013-03-29 06:05:00,
2013-03-28 23:10:00,57.6,51.5,30.03,South,180,0.0,0.0,80,0.00,,---,0.00,VWS V12.07,2013-03-29 06:10:00,
2013-03-28 23:20:00,57.3,51.2,30.03,South,180,0.0,0.0,80,0.00,,---,0.00,VWS V12.07,2013-03-29 06:20:00,
2013-03-28 23:25:00,57.2,51.4,30.03,South,180,1.0,2.0,81,0.00,,---,0.00,VWS V12.07,2013-03-29 06:25:00,
2013-03-28 23:35:00,56.9,51.1,30.03,South,180,1.0,2.0,81,0.00,,---,0.00,VWS V12.07,2013-03-29 06:35:00,
2013-03-28 23:40:00,56.7,50.9,30.03,South,180,0.0,0.0,81,0.00,,---,0.00,VWS V12.07,2013-03-29 06:40:00,
2013-03-28 23:45:00,56.7,50.9,30.03,South,180,0.0,0.0,81,0.00,,---,0.00,VWS V12.07,2013-03-29 06:45:00,
2013-03-28 23:50:00,56.6,50.8,30.03,South,180,0.0,0.0,81,0.00,,---,0.00,VWS V12.07,2013-03-29 06:50:00,